Time;durP1;ratioP1;P1;durP2;ratioP2;P2;SDS_P1;SDS_P2;PMS_P1;PMS_P2;Temp;Humidity;BMP_temperature;BMP_pressure;BME280_temperature;BME280_humidity;BME280_pressure;Samples;Min_cycle;Max_cycle;Signal;HPM_P1;HPM_P2
2023/11/10 00:02:22;;;;;;;2.83;1.90;;;8.90;95.40;;;;;;4897783;29;20103;-85
2023/11/10 00:04:49;;;;;;;2.60;1.63;;;8.80;95.20;;;;;;4900428;29;20404;-86
2023/11/10 00:07:19;;;;;;;2.33;1.98;;;8.80;95.30;;;;;;4906682;29;20353;-85
2023/11/10 00:09:45;;;;;;;3.60;1.75;;;8.80;95.20;;;;;;4898610;29;20024;-86
2023/11/10 00:12:12;;;;;;;1.77;1.50;;;8.80;95.30;;;;;;4902658;29;20132;-85
2023/11/10 00:14:39;;;;;;;2.10;1.55;;;8.80;95.30;;;;;;4902537;29;20043;-86
2023/11/10 00:17:09;;;;;;;2.83;1.60;;;8.90;95.30;;;;;;4901615;29;20096;-87
2023/11/10 00:19:44;;;;;;;2.75;1.80;;;8.90;95.20;;;;;;4903727;29;20039;-86
2023/11/10 00:22:09;;;;;;;4.05;1.90;;;8.90;95.20;;;;;;4907471;29;20035;-87
2023/11/10 00:24:45;;;;;;;2.00;1.80;;;8.90;95.20;;;;;;4899664;29;20036;-86
2023/11/10 00:27:14;;;;;;;2.03;1.50;;;8.90;95.20;;;;;;4914367;29;20124;-85
2023/11/10 00:29:44;;;;;;;4.82;2.00;;;8.90;95.20;;;;;;4902103;29;20472;-85
2023/11/10 00:32:11;;;;;;;4.18;1.85;;;8.90;95.10;;;;;;4900268;29;20028;-85
2023/11/10 00:34:39;;;;;;;3.97;2.05;;;8.90;95.10;;;;;;4901398;29;20152;-85
2023/11/10 00:37:05;;;;;;;2.95;1.98;;;8.90;95.20;;;;;;4918476;29;20035;-85
2023/11/10 00:39:31;;;;;;;2.95;1.70;;;8.90;95.40;;;;;;4898720;29;20028;-83
2023/11/10 00:41:57;;;;;;;5.03;2.05;;;8.90;95.20;;;;;;4901647;29;20084;-85
2023/11/10 00:44:23;;;;;;;3.78;1.80;;;8.90;95.10;;;;;;4910816;29;20032;-87
2023/11/10 00:46:50;;;;;;;3.17;2.10;;;8.90;95.20;;;;;;4910646;29;20017;-86
2023/11/10 00:49:16;;;;;;;4.63;2.05;;;8.90;95.20;;;;;;4911626;29;20024;-84
2023/11/10 00:51:41;;;;;;;2.47;1.52;;;8.90;95.20;;;;;;4896211;29;20020;-86
2023/11/10 00:54:07;;;;;;;2.08;1.60;;;8.90;95.20;;;;;;4905328;29;20545;-86
2023/11/10 00:56:33;;;;;;;2.70;1.52;;;9.00;95.20;;;;;;4903686;29;20035;-86
2023/11/10 00:59:00;;;;;;;3.30;1.52;;;8.90;95.20;;;;;;4901707;29;20025;-85
2023/11/10 01:01:26;;;;;;;2.35;1.50;;;9.00;95.20;;;;;;4896589;29;20086;-86
2023/11/10 01:03:52;;;;;;;2.55;1.38;;;9.00;95.20;;;;;;4901025;29;20025;-87
2023/11/10 01:06:17;;;;;;;1.88;1.50;;;9.00;95.20;;;;;;4908422;29;20106;-85
2023/11/10 01:08:43;;;;;;;3.42;1.50;;;9.00;95.20;;;;;;4895753;29;20080;-84
2023/11/10 01:11:09;;;;;;;2.47;1.67;;;9.00;95.20;;;;;;4908120;29;20399;-87
2023/11/10 01:13:35;;;;;;;3.22;1.50;;;9.00;95.20;;;;;;4895628;29;20464;-86
2023/11/10 01:16:01;;;;;;;1.88;1.25;;;9.10;95.20;;;;;;4894812;29;20032;-86
2023/11/10 01:18:27;;;;;;;1.45;1.15;;;9.10;95.40;;;;;;4891345;29;20038;-86
2023/11/10 01:20:54;;;;;;;1.90;1.20;;;9.10;95.20;;;;;;4896437;29;20056;-86
2023/11/10 01:23:20;;;;;;;3.90;1.50;;;9.10;95.20;;;;;;4899486;29;20059;-86
2023/11/10 01:25:47;;;;;;;2.85;1.90;;;9.10;95.20;;;;;;4896644;29;20060;-87
2023/11/10 01:28:12;;;;;;;2.85;1.40;;;9.10;95.10;;;;;;4894388;29;20024;-87
2023/11/10 01:30:38;;;;;;;2.88;1.20;;;9.10;95.10;;;;;;4891849;29;20477;-86
2023/11/10 01:33:05;;;;;;;1.55;1.20;;;9.10;95.10;;;;;;4894675;29;20044;-86
2023/11/10 01:35:30;;;;;;;1.55;0.98;;;9.20;95.10;;;;;;4894015;29;20037;-87
2023/11/10 01:37:56;;;;;;;2.83;1.27;;;9.20;95.10;;;;;;4894164;29;20055;-86
2023/11/10 01:40:22;;;;;;;3.10;1.73;;;9.20;95.10;;;;;;4893845;29;20027;-85
2023/11/10 01:42:47;;;;;;;2.55;1.58;;;9.20;95.00;;;;;;4895250;29;20107;-85
2023/11/10 01:45:13;;;;;;;2.10;1.40;;;9.20;95.00;;;;;;4895260;29;20050;-86
2023/11/10 01:47:40;;;;;;;1.38;1.27;;;9.10;94.90;;;;;;4893268;29;20109;-86
2023/11/10 01:50:07;;;;;;;2.78;1.40;;;9.20;94.90;;;;;;4893645;29;20080;-86
2023/11/10 01:52:33;;;;;;;2.80;1.60;;;9.20;94.90;;;;;;4891286;29;22558;-87
2023/11/10 01:54:59;;;;;;;2.25;1.40;;;9.20;94.80;;;;;;4891832;29;20025;-86
2023/11/10 01:57:24;;;;;;;1.75;1.10;;;9.20;95.00;;;;;;4895592;29;20021;-86
2023/11/10 01:59:54;;;;;;;4.20;1.42;;;9.20;94.90;;;;;;4895199;29;20071;-85
2023/11/10 02:02:20;;;;;;;3.63;1.50;;;9.20;94.80;;;;;;4903431;29;20025;-85
2023/11/10 02:04:47;;;;;;;2.05;1.70;;;9.20;94.70;;;;;;4893797;29;20021;-85
2023/11/10 02:07:13;;;;;;;3.00;1.27;;;9.20;94.70;;;;;;4893204;29;20079;-86
2023/11/10 02:09:39;;;;;;;3.70;1.50;;;9.20;94.70;;;;;;4891099;29;20039;-85
2023/11/10 02:12:05;;;;;;;3.50;1.40;;;9.20;94.60;;;;;;4903405;29;20033;-86
2023/11/10 02:14:32;;;;;;;2.35;1.50;;;9.20;94.50;;;;;;4891057;29;20042;-86
2023/11/10 02:16:58;;;;;;;4.40;1.60;;;9.20;94.40;;;;;;4890837;29;20477;-86
2023/11/10 02:19:24;;;;;;;4.68;1.67;;;9.20;94.30;;;;;;4896784;29;20027;-87
2023/11/10 02:21:49;;;;;;;1.58;1.27;;;9.20;94.30;;;;;;4890138;29;20040;-86
2023/11/10 02:24:17;;;;;;;2.22;1.27;;;9.20;94.20;;;;;;4896318;29;20027;-85
2023/11/10 02:26:44;;;;;;;3.00;1.30;;;9.20;94.20;;;;;;4896175;29;20025;-86
2023/11/10 02:29:15;;;;;;;2.60;1.20;;;9.20;94.10;;;;;;4893101;29;20397;-87
2023/11/10 02:31:41;;;;;;;1.65;0.98;;;9.20;94.10;;;;;;4899756;29;20032;-85
2023/11/10 02:34:07;;;;;;;2.35;1.65;;;9.30;94.10;;;;;;4899021;29;20032;-86
2023/11/10 02:36:33;;;;;;;3.67;1.40;;;9.30;94.00;;;;;;4894169;29;20024;-85
2023/11/10 02:38:59;;;;;;;1.55;1.20;;;9.30;93.90;;;;;;4896841;29;20024;-85
2023/11/10 02:41:24;;;;;;;2.97;1.30;;;9.30;93.90;;;;;;4894452;29;20369;-86
2023/11/10 02:43:50;;;;;;;2.47;1.30;;;9.30;93.90;;;;;;4892751;29;20026;-85
2023/11/10 02:46:16;;;;;;;2.13;1.30;;;9.30;93.90;;;;;;4897874;29;20031;-88
2023/11/10 02:48:41;;;;;;;5.65;1.60;;;9.30;93.80;;;;;;4893876;29;20104;-87
2023/11/10 02:51:07;;;;;;;1.50;1.17;;;9.30;93.70;;;;;;4885308;29;20025;-87
2023/11/10 02:53:33;;;;;;;1.75;1.30;;;9.30;93.70;;;;;;4907404;29;20456;-87
2023/11/10 02:56:01;;;;;;;2.13;1.00;;;9.30;93.80;;;;;;4896393;29;20091;-88
2023/11/10 02:58:27;;;;;;;2.58;1.05;;;9.30;93.80;;;;;;4890092;29;20016;-88
2023/11/10 03:00:55;;;;;;;2.42;1.40;;;9.30;93.80;;;;;;4896812;29;20499;-88
2023/11/10 03:03:21;;;;;;;2.05;1.25;;;9.30;94.10;;;;;;4894509;29;20063;-86
2023/11/10 03:05:46;;;;;;;1.13;1.02;;;9.30;93.80;;;;;;4895970;29;20072;-85
2023/11/10 03:08:12;;;;;;;1.48;0.95;;;9.30;93.80;;;;;;4892003;29;20049;-85
2023/11/10 03:10:37;;;;;;;0.90;0.90;;;9.30;93.90;;;;;;4899171;29;20531;-85
2023/11/10 03:13:03;;;;;;;2.60;1.10;;;9.40;93.90;;;;;;4892571;29;20971;-87
2023/11/10 03:15:29;;;;;;;1.95;1.23;;;9.30;93.80;;;;;;4897570;29;20236;-86
2023/11/10 03:17:58;;;;;;;1.30;1.17;;;9.30;93.80;;;;;;4896557;29;20116;-87
2023/11/10 03:20:24;;;;;;;2.35;1.23;;;9.30;93.90;;;;;;4897453;29;20020;-85
2023/11/10 03:22:50;;;;;;;1.98;1.60;;;9.30;93.80;;;;;;4894844;29;20058;-85
2023/11/10 03:25:16;;;;;;;3.00;1.50;;;9.30;93.70;;;;;;4893085;29;20126;-85
2023/11/10 03:27:41;;;;;;;1.60;1.00;;;9.30;93.70;;;;;;4894715;29;20028;-85
2023/11/10 03:30:09;;;;;;;1.20;1.10;;;9.30;93.70;;;;;;4893312;29;20111;-86
2023/11/10 03:32:34;;;;;;;3.25;1.27;;;9.30;93.80;;;;;;4898319;29;20052;-86
2023/11/10 03:35:01;;;;;;;2.50;1.20;;;9.40;93.80;;;;;;4892944;29;20237;-86
2023/11/10 03:37:26;;;;;;;2.70;1.38;;;9.30;93.70;;;;;;4908041;29;20123;-86
2023/11/10 03:39:52;;;;;;;2.38;1.50;;;9.40;93.70;;;;;;4893684;29;20103;-86
2023/11/10 03:42:17;;;;;;;2.42;1.40;;;9.40;93.60;;;;;;4903629;29;20488;-86
2023/11/10 03:44:43;;;;;;;2.60;1.25;;;9.40;93.60;;;;;;4895347;29;20049;-87
2023/11/10 03:47:09;;;;;;;1.45;1.15;;;9.40;93.60;;;;;;4895931;29;20027;-89
2023/11/10 03:49:35;;;;;;;1.80;1.20;;;9.30;93.60;;;;;;4898153;29;20070;-88
2023/11/10 03:52:01;;;;;;;3.05;1.27;;;9.30;93.60;;;;;;4895073;29;20084;-85
2023/11/10 03:54:27;;;;;;;1.30;0.90;;;9.30;93.40;;;;;;4893593;29;20503;-83
2023/11/10 03:56:53;;;;;;;1.42;1.00;;;9.30;93.50;;;;;;4887789;29;20544;-84
2023/11/10 03:59:19;;;;;;;1.42;1.08;;;9.40;93.60;;;;;;4897149;29;20032;-83
2023/11/10 04:01:44;;;;;;;1.63;1.10;;;9.40;93.50;;;;;;4893459;29;20024;-83
2023/11/10 04:04:10;;;;;;;2.75;1.48;;;9.40;93.50;;;;;;4906739;29;20061;-83
2023/11/10 04:06:36;;;;;;;2.22;1.38;;;9.40;93.50;;;;;;4891089;29;20507;-83
2023/11/10 04:09:02;;;;;;;1.27;1.08;;;9.30;93.50;;;;;;4894842;29;20024;-84
2023/11/10 04:11:29;;;;;;;2.13;1.23;;;9.40;93.50;;;;;;4900794;29;20039;-83
2023/11/10 04:13:55;;;;;;;3.55;1.58;;;9.30;93.40;;;;;;4893325;29;20071;-83
2023/11/10 04:16:22;;;;;;;2.33;1.40;;;9.30;93.60;;;;;;4898044;29;20036;-83
2023/11/10 04:18:52;;;;;;;1.45;1.13;;;9.30;93.30;;;;;;4896336;29;20489;-83
2023/11/10 04:21:21;;;;;;;1.65;1.30;;;9.30;93.30;;;;;;4898451;29;20025;-83
2023/11/10 04:23:46;;;;;;;5.25;1.50;;;9.40;93.30;;;;;;4895338;29;20021;-84
2023/11/10 04:26:13;;;;;;;1.20;1.10;;;9.30;93.20;;;;;;4897806;29;20035;-82
2023/11/10 04:28:39;;;;;;;1.67;1.25;;;9.30;93.20;;;;;;4905076;29;20044;-84
2023/11/10 04:31:05;;;;;;;2.10;1.63;;;9.30;93.10;;;;;;4899098;29;20037;-84
2023/11/10 04:33:31;;;;;;;1.73;1.05;;;9.30;93.10;;;;;;4896124;29;20046;-84
2023/11/10 04:35:57;;;;;;;1.25;1.00;;;9.30;93.10;;;;;;4897010;29;20103;-84
2023/11/10 04:38:23;;;;;;;1.77;1.10;;;9.30;93.10;;;;;;4896621;29;20590;-84
2023/11/10 04:40:51;;;;;;;2.40;0.90;;;9.40;93.10;;;;;;4896085;29;20482;-84
2023/11/10 04:43:17;;;;;;;2.10;1.00;;;9.40;93.10;;;;;;4895612;29;20068;-84
2023/11/10 04:45:43;;;;;;;0.93;0.93;;;9.40;93.10;;;;;;4895394;29;20055;-84
2023/11/10 04:48:08;;;;;;;0.93;0.80;;;9.40;93.10;;;;;;4896681;29;20065;-84
2023/11/10 04:50:34;;;;;;;1.90;0.90;;;9.40;93.20;;;;;;4887677;29;20017;-86
2023/11/10 04:52:59;;;;;;;1.77;1.00;;;9.40;93.20;;;;;;4895291;29;20470;-86
2023/11/10 04:55:25;;;;;;;1.58;1.00;;;9.40;93.20;;;;;;4901257;29;20109;-85
2023/11/10 04:57:51;;;;;;;1.38;1.00;;;9.40;93.20;;;;;;4891927;29;20633;-85
2023/11/10 05:00:17;;;;;;;1.77;1.00;;;9.40;93.20;;;;;;4892729;29;20040;-85
2023/11/10 05:02:45;;;;;;;1.63;0.80;;;9.40;93.20;;;;;;4908648;29;20021;-86
2023/11/10 05:05:15;;;;;;;1.23;0.90;;;9.40;93.20;;;;;;4899255;29;20103;-85
2023/11/10 05:07:41;;;;;;;2.95;1.30;;;9.40;93.30;;;;;;4889055;29;20123;-86
2023/11/10 05:10:08;;;;;;;3.70;1.00;;;9.40;93.20;;;;;;4905817;29;20071;-85
2023/11/10 05:12:36;;;;;;;1.23;1.13;;;9.40;93.20;;;;;;4889322;29;20116;-86
2023/11/10 05:15:05;;;;;;;1.85;1.00;;;9.40;93.20;;;;;;4892982;29;20032;-85
2023/11/10 05:17:39;;;;;;;2.88;1.30;;;9.40;93.20;;;;;;4894418;29;20040;-85
2023/11/10 05:20:12;;;;;;;1.48;1.00;;;9.40;93.10;;;;;;4899006;29;20021;-85
2023/11/10 05:22:42;;;;;;;1.67;1.13;;;9.40;93.10;;;;;;4895437;29;20036;-86
2023/11/10 05:25:08;;;;;;;2.22;1.20;;;9.40;93.10;;;;;;4894985;29;20033;-86
2023/11/10 05:27:34;;;;;;;1.75;1.08;;;9.40;93.10;;;;;;4900522;29;20043;-85
2023/11/10 05:30:00;;;;;;;2.90;1.17;;;9.30;93.10;;;;;;4898773;29;20029;-86
2023/11/10 05:32:26;;;;;;;1.13;1.00;;;9.30;93.10;;;;;;4890269;29;20045;-85
2023/11/10 05:34:54;;;;;;;1.58;1.13;;;9.40;93.10;;;;;;4892184;29;20033;-85
2023/11/10 05:37:23;;;;;;;2.78;1.10;;;9.30;93.10;;;;;;4908913;29;20021;-84
2023/11/10 05:39:53;;;;;;;2.45;1.10;;;9.40;93.40;;;;;;4896626;29;20028;-84
2023/11/10 05:42:22;;;;;;;1.80;1.10;;;9.40;93.20;;;;;;4896764;29;20655;-84
2023/11/10 05:44:48;;;;;;;1.10;1.00;;;9.40;93.10;;;;;;4895878;29;20523;-83
2023/11/10 05:47:14;;;;;;;1.73;1.00;;;9.40;93.10;;;;;;4897939;29;20083;-84
2023/11/10 05:49:41;;;;;;;1.15;0.70;;;9.40;93.10;;;;;;4896517;29;21022;-83
2023/11/10 05:52:09;;;;;;;1.40;1.17;;;9.40;93.10;;;;;;4898621;29;20033;-84
2023/11/10 05:54:34;;;;;;;1.10;1.00;;;9.40;93.10;;;;;;4896055;29;20534;-85
2023/11/10 05:57:00;;;;;;;2.05;1.48;;;9.40;93.10;;;;;;4894081;29;20107;-82
2023/11/10 05:59:27;;;;;;;2.47;1.30;;;9.30;93.20;;;;;;4893846;29;20028;-83
2023/11/10 06:01:53;;;;;;;1.83;1.10;;;9.30;93.00;;;;;;4889737;29;20032;-82
2023/11/10 06:04:19;;;;;;;1.63;1.10;;;9.20;93.00;;;;;;4891352;29;20033;-82
2023/11/10 06:06:44;;;;;;;1.52;1.15;;;9.30;93.00;;;;;;4891423;29;20035;-83
2023/11/10 06:09:11;;;;;;;4.45;1.45;;;9.30;93.10;;;;;;4891780;29;20036;-82
2023/11/10 06:11:37;;;;;;;2.42;1.20;;;9.30;93.00;;;;;;4896578;29;20088;-83
2023/11/10 06:14:03;;;;;;;2.28;1.00;;;9.20;92.80;;;;;;4894468;29;20540;-83
2023/11/10 06:16:28;;;;;;;2.20;1.20;;;9.20;92.90;;;;;;4892442;29;20052;-82
2023/11/10 06:18:55;;;;;;;0.95;0.93;;;9.20;92.90;;;;;;4891270;29;20178;-83
2023/11/10 06:21:23;;;;;;;1.98;1.08;;;9.20;92.90;;;;;;4900524;29;20090;-85
2023/11/10 06:23:53;;;;;;;3.30;1.35;;;9.10;92.90;;;;;;4897175;29;20032;-84
2023/11/10 06:26:20;;;;;;;1.45;1.10;;;9.10;93.00;;;;;;4903015;29;20092;-85
2023/11/10 06:28:49;;;;;;;1.10;1.00;;;9.10;93.00;;;;;;4900167;29;20032;-85
2023/11/10 06:31:15;;;;;;;1.65;0.95;;;9.00;93.00;;;;;;4900090;29;20071;-84
2023/11/10 06:33:41;;;;;;;2.58;1.20;;;9.00;93.10;;;;;;4902923;29;20036;-85
2023/11/10 06:36:08;;;;;;;3.15;1.20;;;9.00;93.10;;;;;;4903092;29;20498;-86
2023/11/10 06:38:33;;;;;;;2.65;1.10;;;8.90;93.00;;;;;;4897936;29;20044;-86
2023/11/10 06:40:59;;;;;;;2.17;1.27;;;8.80;93.10;;;;;;4900701;29;20027;-86
2023/11/10 06:43:25;;;;;;;3.45;1.63;;;8.80;93.20;;;;;;4895108;29;20028;-86
2023/11/10 06:45:50;;;;;;;5.18;1.35;;;8.80;93.30;;;;;;4895735;29;20484;-85
2023/11/10 06:48:16;;;;;;;1.95;1.10;;;8.70;93.50;;;;;;4892341;29;20032;-86
2023/11/10 06:50:43;;;;;;;1.85;1.15;;;8.60;93.40;;;;;;4895413;29;20085;-85
2023/11/10 06:53:11;;;;;;;1.10;1.00;;;8.60;93.40;;;;;;4899864;29;20029;-85
2023/11/10 06:55:38;;;;;;;2.20;1.40;;;8.60;93.60;;;;;;4903951;29;20024;-85
2023/11/10 06:58:04;;;;;;;3.28;1.20;;;8.50;93.60;;;;;;4900674;29;20033;-85
2023/11/10 07:00:30;;;;;;;2.25;1.10;;;8.50;93.70;;;;;;4903061;29;20116;-85
2023/11/10 07:02:56;;;;;;;2.17;1.20;;;8.50;93.70;;;;;;4892512;29;20453;-86
2023/11/10 07:05:25;;;;;;;4.15;1.40;;;8.60;93.70;;;;;;4895872;29;20036;-85
2023/11/10 07:07:54;;;;;;;1.25;0.90;;;8.50;93.70;;;;;;4895869;29;20059;-85
2023/11/10 07:10:20;;;;;;;1.95;1.25;;;8.60;93.80;;;;;;4894641;29;20387;-85
2023/11/10 07:12:46;;;;;;;2.15;1.00;;;8.60;93.80;;;;;;4897515;29;20032;-86
2023/11/10 07:15:12;;;;;;;2.85;1.10;;;8.60;93.80;;;;;;4897676;29;20049;-85
2023/11/10 07:17:38;;;;;;;1.38;0.90;;;8.60;93.80;;;;;;4891577;29;20020;-85
2023/11/10 07:20:14;;;;;;;3.50;1.30;;;8.60;93.80;;;;;;4891444;29;20120;-84
2023/11/10 07:22:40;;;;;;;1.67;0.90;;;8.60;93.90;;;;;;4892175;29;20093;-89
2023/11/10 07:25:07;;;;;;;2.33;0.88;;;8.60;93.90;;;;;;4888045;29;20618;-84
2023/11/10 07:27:33;;;;;;;1.10;1.00;;;8.70;93.90;;;;;;4898080;29;20038;-85
2023/11/10 07:29:58;;;;;;;1.63;1.13;;;8.70;93.80;;;;;;4912047;29;20437;-84
2023/11/10 07:32:24;;;;;;;2.30;1.13;;;8.70;93.80;;;;;;4891898;29;20111;-85
2023/11/10 07:34:50;;;;;;;1.58;1.10;;;8.80;93.80;;;;;;4899435;29;20045;-85
2023/11/10 07:37:16;;;;;;;2.55;1.20;;;8.80;93.70;;;;;;4898007;29;20033;-84
2023/11/10 07:39:41;;;;;;;4.28;1.40;;;8.80;93.60;;;;;;4895466;29;20524;-85
2023/11/10 07:42:07;;;;;;;1.27;1.10;;;8.80;93.60;;;;;;4900819;29;20608;-84
2023/11/10 07:44:34;;;;;;;1.80;1.10;;;8.90;93.70;;;;;;4905792;29;20048;-85
2023/11/10 07:47:00;;;;;;;2.03;1.10;;;8.90;93.60;;;;;;4900939;29;20020;-85
2023/11/10 07:49:25;;;;;;;3.00;1.23;;;8.90;93.60;;;;;;4902940;29;20044;-85
2023/11/10 07:51:53;;;;;;;3.55;1.40;;;8.90;93.50;;;;;;4894741;29;20484;-85
2023/11/10 07:54:20;;;;;;;2.83;1.10;;;8.90;93.50;;;;;;4899475;29;20036;-85
2023/11/10 07:56:46;;;;;;;1.80;1.10;;;8.90;93.50;;;;;;4891203;29;20092;-85
2023/11/10 07:59:12;;;;;;;2.53;1.30;;;8.90;93.50;;;;;;4901169;29;20032;-85
2023/11/10 08:01:41;;;;;;;1.83;1.20;;;9.00;93.50;;;;;;4899335;29;20028;-85
2023/11/10 08:04:10;;;;;;;2.75;1.30;;;9.00;93.50;;;;;;4913623;29;20024;-85
2023/11/10 08:06:36;;;;;;;2.65;1.20;;;9.00;93.40;;;;;;4907155;29;20036;-85
2023/11/10 08:09:03;;;;;;;3.65;1.50;;;9.00;93.30;;;;;;4905056;29;20051;-85
2023/11/10 08:11:30;;;;;;;2.88;1.00;;;9.00;93.40;;;;;;4913701;29;20532;-85
2023/11/10 08:13:56;;;;;;;1.75;0.90;;;9.00;93.40;;;;;;4898439;29;20560;-85
2023/11/10 08:16:22;;;;;;;2.55;1.30;;;9.10;93.40;;;;;;4896541;29;20052;-85
2023/11/10 08:18:47;;;;;;;2.58;1.50;;;9.10;93.30;;;;;;4893748;29;20484;-85
2023/11/10 08:21:17;;;;;;;1.60;1.10;;;9.10;93.20;;;;;;4898586;29;20499;-85
2023/11/10 08:23:43;;;;;;;2.95;1.10;;;9.10;93.30;;;;;;4886611;29;20567;-84
2023/11/10 08:26:09;;;;;;;3.35;1.38;;;9.10;93.30;;;;;;4910881;29;20017;-85
2023/11/10 08:28:34;;;;;;;3.05;1.58;;;9.20;93.30;;;;;;4895352;29;20052;-85
2023/11/10 08:31:00;;;;;;;3.50;1.25;;;9.10;93.30;;;;;;4894982;29;20029;-85
2023/11/10 08:33:26;;;;;;;2.67;1.02;;;9.20;93.30;;;;;;4893181;29;20497;-84
2023/11/10 08:35:52;;;;;;;5.97;2.20;;;9.20;93.30;;;;;;4894260;29;20031;-85
2023/11/10 08:38:18;;;;;;;4.18;1.70;;;9.20;93.20;;;;;;4889859;29;20025;-85
2023/11/10 08:40:44;;;;;;;2.28;1.27;;;9.10;93.10;;;;;;4894088;29;20037;-85
2023/11/10 08:43:10;;;;;;;2.58;1.58;;;9.10;93.40;;;;;;4895736;29;20032;-85
2023/11/10 08:45:36;;;;;;;3.17;1.60;;;9.10;93.10;;;;;;4896467;29;20028;-85
2023/11/10 08:48:02;;;;;;;3.15;1.83;;;9.10;93.10;;;;;;4896061;29;20091;-85
2023/11/10 08:50:28;;;;;;;1.77;1.13;;;9.10;93.20;;;;;;4886166;29;20119;-85
2023/11/10 08:52:53;;;;;;;2.50;1.30;;;9.20;93.20;;;;;;4893688;29;20072;-86
2023/11/10 08:55:21;;;;;;;3.80;1.60;;;9.20;93.20;;;;;;4892486;29;20029;-85
2023/11/10 08:57:47;;;;;;;3.20;1.42;;;9.20;93.10;;;;;;4893456;29;20557;-85
2023/11/10 09:00:16;;;;;;;2.92;1.27;;;9.30;93.10;;;;;;4891885;29;20061;-85
2023/11/10 09:02:43;;;;;;;3.63;1.40;;;9.30;93.10;;;;;;4907648;29;20061;-85
2023/11/10 09:05:12;;;;;;;4.38;1.48;;;9.30;93.00;;;;;;4894729;29;20118;-85
2023/11/10 09:07:39;;;;;;;2.97;1.20;;;9.30;93.00;;;;;;4894371;29;20739;-83
2023/11/10 09:10:06;;;;;;;1.65;1.20;;;9.30;92.90;;;;;;4909578;29;20080;-83
2023/11/10 09:12:33;;;;;;;1.75;1.10;;;9.30;93.00;;;;;;4909485;29;20063;-83
2023/11/10 09:14:59;;;;;;;2.67;1.25;;;9.40;93.10;;;;;;4895249;29;20040;-84
2023/11/10 09:17:24;;;;;;;2.92;1.20;;;9.40;93.00;;;;;;4892119;29;20021;-84
2023/11/10 09:19:51;;;;;;;1.83;1.20;;;9.40;93.00;;;;;;4892666;29;20041;-85
2023/11/10 09:22:17;;;;;;;1.63;1.20;;;9.40;92.90;;;;;;4887974;29;20517;-84
2023/11/10 09:24:43;;;;;;;4.32;1.88;;;9.40;92.90;;;;;;4887520;29;20032;-84
2023/11/10 09:27:09;;;;;;;4.97;1.33;;;9.40;92.80;;;;;;4896572;29;20099;-85
2023/11/10 09:29:35;;;;;;;3.63;1.38;;;9.40;92.80;;;;;;4895398;29;20518;-84
2023/11/10 09:32:00;;;;;;;3.60;1.50;;;9.40;92.80;;;;;;4893754;29;20045;-85
2023/11/10 09:34:27;;;;;;;4.18;1.35;;;9.40;92.70;;;;;;4899346;29;20039;-85
2023/11/10 09:36:56;;;;;;;5.15;1.55;;;9.50;92.70;;;;;;4897113;29;20062;-85
2023/11/10 09:39:22;;;;;;;4.38;1.60;;;9.50;92.70;;;;;;4892237;29;20510;-85
2023/11/10 09:41:48;;;;;;;6.68;1.75;;;9.50;92.60;;;;;;4895040;29;20040;-85
2023/11/10 09:44:14;;;;;;;5.30;2.17;;;9.50;92.50;;;;;;4890669;29;20031;-85
2023/11/10 09:46:47;;;;;;;3.25;1.30;;;9.50;92.40;;;;;;4895682;29;20123;-84
2023/11/10 09:49:13;;;;;;;2.80;1.50;;;9.50;92.50;;;;;;4911718;29;20031;-85
2023/11/10 09:51:40;;;;;;;4.63;1.50;;;9.50;92.50;;;;;;4899041;29;20107;-84
2023/11/10 09:54:08;;;;;;;2.95;1.30;;;9.60;92.50;;;;;;4896890;29;20032;-85
2023/11/10 09:56:37;;;;;;;4.55;1.30;;;9.60;92.40;;;;;;4899641;29;20029;-84
2023/11/10 09:59:06;;;;;;;6.00;1.60;;;9.60;92.30;;;;;;4897456;29;20036;-84
2023/11/10 10:01:32;;;;;;;4.45;1.40;;;9.50;92.30;;;;;;4890915;29;20429;-85
2023/11/10 10:03:57;;;;;;;3.17;1.40;;;9.50;92.40;;;;;;4893751;29;20494;-84
2023/11/10 10:06:25;;;;;;;3.38;1.40;;;9.70;92.40;;;;;;4897249;29;20032;-84
2023/11/10 10:08:54;;;;;;;2.55;1.20;;;9.70;92.30;;;;;;4891918;29;20020;-82
2023/11/10 10:11:21;;;;;;;4.88;1.70;;;9.70;92.30;;;;;;4888721;29;20063;-85
2023/11/10 10:13:47;;;;;;;2.17;1.27;;;9.70;92.20;;;;;;4895346;29;20041;-85
2023/11/10 10:16:13;;;;;;;3.97;1.13;;;9.70;92.20;;;;;;4902668;29;20556;-85
2023/11/10 10:18:39;;;;;;;6.47;1.50;;;9.80;92.30;;;;;;4907304;29;20024;-85
2023/11/10 10:21:05;;;;;;;2.05;1.15;;;9.80;92.10;;;;;;4891303;29;20036;-85
2023/11/10 10:23:32;;;;;;;3.13;1.10;;;9.80;92.20;;;;;;4897221;29;20040;-85
2023/11/10 10:26:10;;;;;;;4.55;1.67;;;9.80;92.20;;;;;;4897722;29;20028;-85
2023/11/10 10:28:35;;;;;;;5.55;1.70;;;9.90;92.20;;;;;;4900397;29;20032;-85
2023/11/10 10:31:02;;;;;;;3.90;1.73;;;9.80;92.10;;;;;;4890904;29;20032;-85
2023/11/10 10:33:28;;;;;;;4.15;1.50;;;9.80;92.20;;;;;;4888446;29;20052;-85
2023/11/10 10:35:53;;;;;;;4.32;1.67;;;9.80;92.30;;;;;;4901116;29;20024;-86
2023/11/10 10:38:22;;;;;;;4.72;1.65;;;9.70;92.30;;;;;;4897688;29;20037;-85
2023/11/10 10:40:53;;;;;;;3.35;1.50;;;9.70;92.40;;;;;;4890830;29;20029;-86
2023/11/10 10:43:19;;;;;;;2.88;1.23;;;9.70;92.60;;;;;;4892718;29;20024;-85
2023/11/10 10:45:45;;;;;;;3.08;1.60;;;9.60;92.70;;;;;;4893019;29;20043;-85
2023/11/10 10:48:11;;;;;;;4.03;1.73;;;9.60;92.80;;;;;;4897427;29;20032;-85
2023/11/10 10:50:39;;;;;;;1.55;1.13;;;9.60;93.00;;;;;;4900153;29;20039;-85
2023/11/10 10:53:07;;;;;;;5.20;1.50;;;9.60;93.20;;;;;;4891665;29;20119;-85
2023/11/10 10:55:35;;;;;;;3.20;1.15;;;9.50;93.20;;;;;;4893469;29;20033;-85
2023/11/10 10:58:01;;;;;;;3.25;1.20;;;9.60;93.40;;;;;;4900650;29;20039;-85
2023/11/10 11:00:26;;;;;;;3.05;1.30;;;9.50;93.50;;;;;;4895979;29;20054;-85
2023/11/10 11:03:20;;;;;;;3.10;1.20;;;9.50;93.60;;;;;;4893284;29;20184;-84
2023/11/10 11:05:59;;;;;;;2.47;1.10;;;9.50;93.70;;;;;;4885391;29;20041;-84
2023/11/10 11:08:33;;;;;;;2.58;1.30;;;9.50;93.80;;;;;;4900327;29;20408;-85
2023/11/10 11:11:34;;;;;;;1.92;0.90;;;9.60;93.80;;;;;;4895380;29;20175;-85
2023/11/10 11:14:25;;;;;;;2.08;1.27;;;9.50;93.80;;;;;;4895820;29;20087;-85
2023/11/10 11:17:28;;;;;;;3.13;1.75;;;9.50;93.90;;;;;;4889812;29;20119;-85
2023/11/10 11:19:54;;;;;;;2.72;1.00;;;9.40;94.00;;;;;;4899689;29;20040;-85
2023/11/10 11:22:20;;;;;;;3.53;1.20;;;9.40;94.30;;;;;;4894416;29;20021;-85
2023/11/10 11:24:46;;;;;;;1.67;1.10;;;9.40;94.40;;;;;;4899862;29;20494;-86
2023/11/10 11:27:21;;;;;;;1.10;0.93;;;9.40;94.50;;;;;;4898926;29;20099;-85
2023/11/10 11:29:54;;;;;;;2.72;1.30;;;9.40;94.50;;;;;;4898645;29;20037;-85
2023/11/10 11:32:25;;;;;;;3.58;1.40;;;9.40;94.70;;;;;;4894488;29;20577;-85
2023/11/10 11:34:57;;;;;;;2.67;1.23;;;9.30;94.80;;;;;;4893529;29;20040;-86
2023/11/10 11:37:32;;;;;;;3.03;1.10;;;9.30;95.00;;;;;;4904607;29;20027;-86
2023/11/10 11:40:00;;;;;;;2.30;1.33;;;9.30;95.10;;;;;;4902347;29;20036;-86
2023/11/10 11:42:39;;;;;;;4.13;1.13;;;9.40;95.10;;;;;;4918078;29;20079;-86
2023/11/10 11:45:14;;;;;;;2.08;1.20;;;9.40;95.10;;;;;;4906387;29;20025;-85
2023/11/10 11:47:44;;;;;;;3.15;1.40;;;9.30;95.30;;;;;;4902591;29;20024;-85
2023/11/10 11:50:10;;;;;;;2.67;1.35;;;9.40;95.30;;;;;;4915497;29;20024;-85
2023/11/10 11:52:36;;;;;;;2.42;1.08;;;9.40;95.40;;;;;;4921922;29;20100;-85
2023/11/10 11:55:06;;;;;;;2.88;1.15;;;9.40;95.40;;;;;;4904684;29;20433;-85
2023/11/10 11:57:34;;;;;;;1.65;1.20;;;9.40;95.70;;;;;;4904953;29;20104;-85
2023/11/10 12:00:02;;;;;;;2.35;1.27;;;9.40;95.40;;;;;;4919147;29;20099;-85
2023/11/10 12:02:27;;;;;;;2.45;1.20;;;9.40;95.40;;;;;;4905083;29;20032;-86
2023/11/10 12:04:53;;;;;;;2.47;1.35;;;9.40;95.50;;;;;;4896078;29;20044;-85
2023/11/10 12:07:19;;;;;;;3.78;1.20;;;9.50;95.50;;;;;;4902760;29;20027;-85
2023/11/10 12:09:46;;;;;;;2.95;1.33;;;9.50;95.50;;;;;;4912904;29;20036;-85
2023/11/10 12:12:14;;;;;;;3.28;1.42;;;9.50;95.50;;;;;;4906268;29;20033;-85
2023/11/10 12:14:39;;;;;;;2.70;1.20;;;9.50;95.50;;;;;;4911012;29;20040;-83
2023/11/10 12:17:06;;;;;;;2.83;1.20;;;9.50;95.50;;;;;;4899142;29;20040;-86
2023/11/10 12:19:32;;;;;;;2.03;1.15;;;9.50;95.40;;;;;;4899301;29;20087;-86
2023/11/10 12:21:59;;;;;;;2.05;1.13;;;9.50;95.40;;;;;;4902423;29;20024;-85
2023/11/10 12:24:30;;;;;;;2.05;1.23;;;9.60;95.40;;;;;;4911346;29;20032;-85
2023/11/10 12:26:59;;;;;;;1.73;1.10;;;9.60;95.30;;;;;;4905747;29;20506;-85
2023/11/10 12:29:28;;;;;;;3.50;1.85;;;9.60;95.20;;;;;;4895889;29;20496;-85
2023/11/10 12:31:54;;;;;;;2.25;1.30;;;9.60;95.20;;;;;;4896109;29;20153;-84
2023/11/10 12:34:19;;;;;;;2.08;1.00;;;9.60;95.10;;;;;;4898607;29;20123;-84
2023/11/10 12:36:51;;;;;;;1.48;1.00;;;9.70;95.10;;;;;;4898548;29;20033;-85
2023/11/10 12:39:17;;;;;;;2.05;1.02;;;9.70;95.00;;;;;;4897301;29;20530;-85
2023/11/10 12:41:47;;;;;;;1.85;1.00;;;9.70;94.90;;;;;;4900976;29;20076;-85
2023/11/10 12:44:16;;;;;;;1.55;1.17;;;9.70;94.80;;;;;;4914287;29;20032;-85
2023/11/10 12:46:55;;;;;;;3.60;1.13;;;9.70;94.60;;;;;;4898631;29;20032;-85
2023/11/10 12:49:26;;;;;;;3.47;1.20;;;9.70;94.40;;;;;;4896539;29;20112;-85
2023/11/10 12:51:53;;;;;;;0.93;0.80;;;9.80;94.40;;;;;;4895510;29;20084;-86
2023/11/10 12:54:24;;;;;;;1.42;0.90;;;9.70;94.30;;;;;;4895251;29;20032;-84
2023/11/10 12:56:50;;;;;;;1.60;0.85;;;9.70;94.20;;;;;;4896728;29;20425;-85
2023/11/10 12:59:30;;;;;;;1.33;1.10;;;9.80;94.10;;;;;;4901392;29;20047;-87